Terminal Aerodrome Forecast
Issued by NWS

Home | Current Version | Previous Version | Text Only | Print | Product List | Glossary On
Versions: 1 2 3 4 5 6 7 8 9 10 11 12 13 14 15 16 17 18 19 20 21 22 23 24
000
FTUS42 KMHX 010541
TAFISO
TAF
KISO 010541Z 0106/0206 06005KT P6SM SCT010
     FM010700 05005KT 6SM BR VCSH OVC005
     FM011500 03008KT P6SM VCSH SCT008 OVC025
     FM011800 05008KT 5SM SHRA OVC025
     FM020000 05006KT P6SM VCSH SCT025 OVC050
      AMD LTD TO CLD VIS AND WIND=

USA.gov is the U.S. government's official web portal to all federal, state and local government web resources and services.